createdAt,value
2023-01-09T00:01:34.065Z,3.83
2023-01-09T00:04:02.302Z,3.83
2023-01-09T00:06:30.062Z,4.33
2023-01-09T00:08:57.784Z,3.77
2023-01-09T00:11:25.531Z,4.07
2023-01-09T00:13:53.358Z,4.87
2023-01-09T00:16:21.136Z,4.23
2023-01-09T00:18:48.779Z,7.47
2023-01-09T00:21:16.406Z,5.80
2023-01-09T00:23:44.066Z,6.73
2023-01-09T00:26:18.017Z,5.33
2023-01-09T00:28:47.946Z,5.03
2023-01-09T00:31:16.109Z,5.53
2023-01-09T00:34:06.875Z,4.77
2023-01-09T00:36:34.519Z,5.90
2023-01-09T00:39:02.701Z,6.27
2023-01-09T00:41:35.890Z,7.23
2023-01-09T00:44:28.932Z,12.63
2023-01-09T00:47:02.065Z,5.97
2023-01-09T00:49:34.174Z,7.30
2023-01-09T00:52:03.672Z,5.37
2023-01-09T00:54:32.159Z,5.30
2023-01-09T00:57:00.092Z,6.37
2023-01-09T00:59:28.452Z,5.53
2023-01-09T01:01:56.314Z,6.63
2023-01-09T01:04:42.435Z,6.73
2023-01-09T01:07:28.433Z,5.40
2023-01-09T01:09:56.024Z,6.03
2023-01-09T01:12:23.645Z,5.40
2023-01-09T01:14:52.711Z,6.03
2023-01-09T01:17:20.427Z,7.30
2023-01-09T01:19:47.975Z,7.27
2023-01-09T01:22:15.571Z,5.43
2023-01-09T01:24:43.217Z,6.33
2023-01-09T01:27:10.764Z,6.23
2023-01-09T01:29:38.338Z,6.97
2023-01-09T01:32:06.031Z,6.63
2023-01-09T01:34:33.831Z,7.53
2023-01-09T01:37:01.392Z,7.23
2023-01-09T01:39:29.168Z,7.07
2023-01-09T01:41:56.805Z,7.50
2023-01-09T01:45:17.119Z,7.90
2023-01-09T01:48:02.096Z,6.60
2023-01-09T01:50:41.675Z,7.23
2023-01-09T01:53:27.807Z,6.17
2023-01-09T01:56:13.854Z,8.13
2023-01-09T01:58:50.188Z,8.60
2023-01-09T02:01:19.776Z,6.37
2023-01-09T02:03:48.401Z,8.23
2023-01-09T02:06:16.486Z,7.07
2023-01-09T02:08:44.644Z,6.23
2023-01-09T02:11:14.472Z,7.63
2023-01-09T02:13:42.530Z,7.83
2023-01-09T02:16:48.091Z,7.37
2023-01-09T02:20:23.377Z,6.33
2023-01-09T02:23:18.297Z,7.70
2023-01-09T02:26:26.192Z,7.93
2023-01-09T02:29:11.772Z,7.23
2023-01-09T02:31:53.153Z,8.00
2023-01-09T02:35:01.193Z,7.60
2023-01-09T02:38:10.988Z,6.03
2023-01-09T02:41:00.706Z,6.93
2023-01-09T02:43:29.293Z,7.23
2023-01-09T02:45:57.137Z,9.50
2023-01-09T02:48:25.257Z,6.57
2023-01-09T02:51:32.569Z,8.53
2023-01-09T02:54:27.997Z,6.53
2023-01-09T02:57:17.156Z,11.90
2023-01-09T03:00:03.237Z,6.97
2023-01-09T03:02:53.160Z,6.53
2023-01-09T03:05:37.325Z,7.47
2023-01-09T03:08:13.031Z,8.17
2023-01-09T03:10:58.239Z,11.70
2023-01-09T03:13:32.445Z,8.40
2023-01-09T03:16:06.276Z,8.70
2023-01-09T03:18:36.250Z,8.63
2023-01-09T03:21:07.645Z,7.13
2023-01-09T03:24:00.158Z,7.47
2023-01-09T03:26:29.470Z,7.67
2023-01-09T03:28:58.521Z,7.93
2023-01-09T03:31:26.207Z,7.10
2023-01-09T03:33:54.035Z,9.60
2023-01-09T03:36:23.499Z,8.03
2023-01-09T03:38:51.479Z,9.40
2023-01-09T03:41:19.681Z,7.63
2023-01-09T03:43:48.408Z,9.20
2023-01-09T03:46:16.851Z,7.23
2023-01-09T03:48:44.534Z,7.73
2023-01-09T03:51:12.150Z,8.30
2023-01-09T03:53:40.001Z,8.13
2023-01-09T03:56:07.720Z,8.47
2023-01-09T03:58:35.346Z,7.73
2023-01-09T04:01:06.185Z,7.77
2023-01-09T04:03:35.713Z,8.83
2023-01-09T04:06:16.622Z,10.07
2023-01-09T04:08:46.251Z,7.90
2023-01-09T04:11:14.157Z,8.13
2023-01-09T04:13:41.744Z,9.60
2023-01-09T04:16:09.335Z,7.80
2023-01-09T04:18:36.908Z,9.40
2023-01-09T04:21:04.911Z,10.70
2023-01-09T04:23:32.551Z,9.00
2023-01-09T04:26:00.116Z,9.63
2023-01-09T04:28:27.785Z,9.53
2023-01-09T04:30:55.389Z,8.30
2023-01-09T04:33:22.970Z,9.10
2023-01-09T04:35:50.557Z,9.40
2023-01-09T04:38:18.329Z,9.33
2023-01-09T04:40:49.016Z,8.97
2023-01-09T04:43:16.773Z,11.03
2023-01-09T04:45:44.756Z,8.53
2023-01-09T04:48:12.621Z,12.33
2023-01-09T04:50:40.255Z,13.53
2023-01-09T04:53:08.039Z,15.10
2023-01-09T04:55:35.755Z,13.40
2023-01-09T04:58:03.459Z,13.27
2023-01-09T05:00:31.233Z,19.90
2023-01-09T05:02:58.898Z,18.07
2023-01-09T05:05:26.484Z,16.80
2023-01-09T05:07:54.159Z,14.93
2023-01-09T05:10:21.790Z,16.80
2023-01-09T05:12:49.545Z,15.90
2023-01-09T05:15:17.388Z,16.00
2023-01-09T05:17:45.236Z,16.57
2023-01-09T05:20:12.984Z,17.93
2023-01-09T05:22:40.650Z,21.77
2023-01-09T05:25:08.781Z,15.70
2023-01-09T05:27:36.422Z,17.07
2023-01-09T05:30:04.639Z,18.73
2023-01-09T05:32:32.303Z,18.00
2023-01-09T05:35:00.421Z,16.87
2023-01-09T05:37:28.115Z,18.73
2023-01-09T05:39:55.719Z,20.27
2023-01-09T05:42:23.358Z,19.37
2023-01-09T05:44:51.092Z,17.97
2023-01-09T05:47:18.831Z,17.30
2023-01-09T05:49:46.370Z,18.90
2023-01-09T05:52:14.075Z,17.80
2023-01-09T05:54:41.672Z,22.80
2023-01-09T05:57:09.268Z,19.43
2023-01-09T05:59:36.868Z,16.20
2023-01-09T06:02:04.695Z,18.53
2023-01-09T06:04:32.292Z,19.33
2023-01-09T06:06:59.976Z,16.53
2023-01-09T06:09:27.547Z,20.03
2023-01-09T06:11:55.131Z,18.13
2023-01-09T06:14:23.709Z,16.43
2023-01-09T06:16:51.399Z,18.17
2023-01-09T06:19:19.046Z,16.57
2023-01-09T06:21:53.163Z,16.73
2023-01-09T06:24:24.782Z,17.70
2023-01-09T06:26:52.387Z,17.43
2023-01-09T06:29:20.091Z,18.00
2023-01-09T06:31:47.725Z,16.73
2023-01-09T06:34:15.266Z,18.00
2023-01-09T06:36:42.818Z,19.13
2023-01-09T06:39:10.363Z,17.60
2023-01-09T06:41:38.209Z,16.70
2023-01-09T06:44:05.914Z,20.50
2023-01-09T06:46:33.981Z,20.97
2023-01-09T06:49:01.661Z,18.90
2023-01-09T06:51:29.252Z,19.13
2023-01-09T06:53:56.817Z,20.33
2023-01-09T06:56:24.432Z,21.40
2023-01-09T06:58:52.364Z,19.50
2023-01-09T07:01:35.634Z,20.83
2023-01-09T07:04:05.270Z,20.33
2023-01-09T07:06:33.622Z,21.07
2023-01-09T07:09:01.347Z,19.57
2023-01-09T07:11:29.558Z,21.63
2023-01-09T07:13:57.211Z,22.90
2023-01-09T07:16:25.956Z,24.17
2023-01-09T07:18:56.422Z,22.77
2023-01-09T07:21:24.888Z,19.33
2023-01-09T07:23:53.606Z,21.53
2023-01-09T07:26:21.269Z,19.70
2023-01-09T07:28:49.955Z,22.57
2023-01-09T07:31:17.781Z,23.63
2023-01-09T07:33:45.408Z,20.23
2023-01-09T07:36:13.145Z,22.50
2023-01-09T07:38:40.875Z,19.17
2023-01-09T07:41:08.564Z,22.23
2023-01-09T07:43:38.030Z,19.73
2023-01-09T07:46:06.529Z,21.37
2023-01-09T07:48:34.324Z,17.70
2023-01-09T07:51:02.236Z,19.27
2023-01-09T07:53:29.923Z,20.73
2023-01-09T07:55:57.648Z,21.27
2023-01-09T07:58:25.276Z,19.90
2023-01-09T08:00:52.899Z,20.00
2023-01-09T08:03:20.440Z,20.47
2023-01-09T08:05:50.495Z,19.23
2023-01-09T08:08:19.067Z,20.07
2023-01-09T08:10:46.668Z,20.43
2023-01-09T08:13:14.295Z,18.57
2023-01-09T08:15:41.930Z,21.50
2023-01-09T08:18:09.563Z,19.13
2023-01-09T08:20:37.104Z,18.27
2023-01-09T08:23:04.834Z,19.83
2023-01-09T08:25:33.301Z,18.73
2023-01-09T08:28:01.007Z,16.90
2023-01-09T08:30:28.578Z,16.27
2023-01-09T08:32:56.436Z,18.37
2023-01-09T08:35:24.028Z,17.67
2023-01-09T08:37:51.803Z,18.30
2023-01-09T08:40:19.645Z,17.07
2023-01-09T08:43:05.869Z,17.50
2023-01-09T08:45:55.181Z,16.63
2023-01-09T08:48:22.940Z,13.80
2023-01-09T08:50:50.880Z,15.60
2023-01-09T08:53:18.481Z,14.90
2023-01-09T08:55:46.120Z,15.57
2023-01-09T08:58:13.773Z,14.47
2023-01-09T09:00:41.685Z,12.27
2023-01-09T09:03:09.920Z,12.60
2023-01-09T09:05:37.934Z,12.73
2023-01-09T09:08:07.063Z,10.47
2023-01-09T09:10:34.785Z,8.77
2023-01-09T09:13:02.482Z,14.50
2023-01-09T09:15:30.168Z,12.03
2023-01-09T09:18:01.755Z,9.77
2023-01-09T09:20:35.451Z,10.13
2023-01-09T09:23:03.861Z,8.10
2023-01-09T09:25:31.891Z,9.30
2023-01-09T09:28:01.169Z,12.43
2023-01-09T09:30:29.040Z,8.70
2023-01-09T09:32:56.721Z,11.93
2023-01-09T09:35:24.742Z,10.80
2023-01-09T09:37:58.139Z,8.47
2023-01-09T09:41:34.089Z,10.70
2023-01-09T09:44:39.597Z,7.17
2023-01-09T09:47:59.066Z,10.43
2023-01-09T09:51:19.348Z,8.80
2023-01-09T09:54:35.563Z,9.33
2023-01-09T09:57:05.397Z,10.83
2023-01-09T09:59:40.310Z,11.07
2023-01-09T10:02:45.975Z,12.10
2023-01-09T10:05:27.827Z,7.00
2023-01-09T10:08:01.289Z,7.07
2023-01-09T10:10:55.346Z,14.63
2023-01-09T10:13:44.121Z,9.53
2023-01-09T10:16:37.231Z,8.03
2023-01-09T10:19:44.976Z,7.30
2023-01-09T10:22:39.310Z,8.10
2023-01-09T10:26:00.644Z,4.93
2023-01-09T10:29:03.347Z,10.27
2023-01-09T10:31:55.447Z,10.13
2023-01-09T10:34:40.468Z,8.73
2023-01-09T10:37:18.669Z,10.17
2023-01-09T10:40:14.264Z,5.90
2023-01-09T10:43:05.416Z,8.60
2023-01-09T10:45:40.331Z,5.57
2023-01-09T10:48:37.544Z,7.80
2023-01-09T10:51:20.313Z,6.97
2023-01-09T10:54:16.361Z,4.17
2023-01-09T10:56:55.310Z,4.40
2023-01-09T10:59:24.538Z,7.77
2023-01-09T11:01:53.432Z,6.27
2023-01-09T11:04:29.635Z,10.77
2023-01-09T11:07:18.891Z,7.60
2023-01-09T11:10:12.209Z,5.83
2023-01-09T11:12:40.778Z,5.63
2023-01-09T11:15:30.924Z,3.73
2023-01-09T11:18:24.913Z,4.87
2023-01-09T11:20:55.088Z,2.57
2023-01-09T11:23:33.304Z,3.17
2023-01-09T11:26:03.010Z,5.97
2023-01-09T11:28:31.186Z,6.87
2023-01-09T11:31:02.249Z,5.17
2023-01-09T11:33:37.885Z,3.50
2023-01-09T11:36:15.698Z,6.57
2023-01-09T11:38:51.166Z,3.17
2023-01-09T11:41:26.961Z,5.90
2023-01-09T11:43:58.307Z,4.73
2023-01-09T11:46:34.705Z,7.67
2023-01-09T11:49:15.220Z,4.87
2023-01-09T11:51:43.995Z,7.37
2023-01-09T11:54:22.121Z,6.93
2023-01-09T11:56:50.744Z,9.97
2023-01-09T11:59:26.774Z,13.10
2023-01-09T12:02:28.471Z,10.47
2023-01-09T12:05:12.845Z,4.87
2023-01-09T12:08:18.064Z,5.47
2023-01-09T12:11:32.851Z,7.57
2023-01-09T12:14:12.852Z,11.50
2023-01-09T12:17:26.631Z,11.17
2023-01-09T12:20:14.439Z,6.87
2023-01-09T12:23:22.486Z,3.93
2023-01-09T12:26:14.104Z,5.23
2023-01-09T12:28:47.528Z,5.90
2023-01-09T12:31:37.023Z,5.83
2023-01-09T12:34:17.035Z,7.07
2023-01-09T12:37:48.314Z,7.73
2023-01-09T12:40:15.981Z,11.53
2023-01-09T12:42:58.764Z,4.70
2023-01-09T12:45:49.725Z,2.85
2023-01-09T12:48:45.303Z,5.30
2023-01-09T12:51:40.571Z,9.57
2023-01-09T12:54:26.672Z,14.20
2023-01-09T12:57:04.215Z,8.07
2023-01-09T12:59:41.548Z,2.20
2023-01-09T13:02:09.180Z,5.00
2023-01-09T13:04:45.989Z,6.07
2023-01-09T13:07:22.725Z,3.83
2023-01-09T13:10:09.004Z,2.90
2023-01-09T13:12:39.573Z,6.57
2023-01-09T13:15:30.644Z,3.00
2023-01-09T13:18:33.873Z,3.53
2023-01-09T13:21:02.448Z,3.80
2023-01-09T13:24:01.449Z,5.27
2023-01-09T13:26:41.525Z,2.27
2023-01-09T13:29:28.611Z,9.13
2023-01-09T13:32:24.982Z,8.13
2023-01-09T13:34:55.273Z,4.17
2023-01-09T13:37:28.564Z,5.97
2023-01-09T13:40:18.931Z,14.95
2023-01-09T13:43:09.903Z,5.13
2023-01-09T13:45:39.531Z,4.53
2023-01-09T13:48:17.686Z,3.15
2023-01-09T13:50:47.533Z,3.65
2023-01-09T13:53:18.399Z,4.50
2023-01-09T13:55:58.704Z,3.63
2023-01-09T13:58:37.136Z,7.25
2023-01-09T14:01:27.413Z,4.63
2023-01-09T14:04:14.899Z,5.28
2023-01-09T14:06:44.982Z,4.53
2023-01-09T14:09:23.263Z,4.05
2023-01-09T14:12:04.919Z,5.22
2023-01-09T14:14:35.005Z,6.10
2023-01-09T14:17:35.367Z,4.97
2023-01-09T14:20:25.520Z,4.15
2023-01-09T14:23:28.261Z,4.53
2023-01-09T14:26:07.158Z,4.68
2023-01-09T14:28:41.532Z,3.40
2023-01-09T14:31:26.007Z,4.65
2023-01-09T14:34:35.403Z,4.57
2023-01-09T14:37:04.363Z,6.13
2023-01-09T14:39:33.307Z,4.40
2023-01-09T14:42:09.073Z,3.20
2023-01-09T14:44:42.829Z,3.40
2023-01-09T14:47:59.827Z,3.50
2023-01-09T14:50:37.705Z,13.10
2023-01-09T14:53:18.458Z,6.43
2023-01-09T14:56:00.827Z,11.50
2023-01-09T14:58:34.671Z,6.97
2023-01-09T15:01:11.219Z,4.88
2023-01-09T15:03:50.571Z,4.60
2023-01-09T15:06:25.444Z,8.88
2023-01-09T15:09:02.512Z,7.95
2023-01-09T15:11:32.275Z,5.30
2023-01-09T15:14:02.722Z,5.10
2023-01-09T15:16:32.714Z,5.90
2023-01-09T15:19:06.704Z,3.73
2023-01-09T15:21:34.800Z,4.47
2023-01-09T15:24:28.606Z,1.83
2023-01-09T15:27:05.535Z,6.93
2023-01-09T15:29:35.055Z,3.90
2023-01-09T15:32:18.248Z,3.73
2023-01-09T15:34:51.654Z,2.87
2023-01-09T15:37:29.823Z,6.07
2023-01-09T15:39:59.805Z,3.13
2023-01-09T15:42:50.970Z,12.80
2023-01-09T15:45:33.886Z,7.63
2023-01-09T15:48:18.259Z,2.63
2023-01-09T15:50:48.494Z,5.93
2023-01-09T15:53:20.295Z,5.93
2023-01-09T15:56:24.959Z,8.03
2023-01-09T15:58:54.656Z,4.83
2023-01-09T16:01:31.961Z,4.70
2023-01-09T16:04:16.349Z,2.03
2023-01-09T16:06:52.627Z,5.50
2023-01-09T16:09:29.011Z,3.53
2023-01-09T16:12:04.436Z,6.27
2023-01-09T16:14:39.623Z,4.57
2023-01-09T16:17:16.003Z,5.03
2023-01-09T16:19:49.786Z,6.70
2023-01-09T16:22:32.726Z,3.63
2023-01-09T16:25:21.869Z,2.47
2023-01-09T16:28:24.342Z,5.70
2023-01-09T16:31:01.635Z,6.67
2023-01-09T16:33:31.465Z,10.33
2023-01-09T16:36:00.942Z,4.03
2023-01-09T16:38:28.865Z,4.17
2023-01-09T16:41:26.944Z,3.53
2023-01-09T16:43:54.644Z,5.90
2023-01-09T16:46:22.381Z,2.17
2023-01-09T16:48:50.533Z,3.67
2023-01-09T16:51:21.757Z,3.43
2023-01-09T16:53:50.178Z,2.80
2023-01-09T16:56:24.448Z,3.30
2023-01-09T16:58:55.315Z,2.53
2023-01-09T17:01:23.474Z,2.43
2023-01-09T17:03:52.510Z,2.77
2023-01-09T17:06:32.403Z,3.20
2023-01-09T17:09:00.275Z,5.53
2023-01-09T17:11:31.419Z,3.37
2023-01-09T17:14:00.914Z,4.27
2023-01-09T17:16:29.809Z,4.20
2023-01-09T17:18:57.552Z,3.90
2023-01-09T17:21:29.206Z,3.03
2023-01-09T17:24:17.031Z,1.73
2023-01-09T17:27:21.592Z,4.00
2023-01-09T17:29:49.195Z,4.90
2023-01-09T17:32:18.084Z,7.53
2023-01-09T17:34:45.864Z,3.03
2023-01-09T17:37:19.194Z,2.30
2023-01-09T17:39:47.033Z,4.97
2023-01-09T17:42:14.726Z,3.33
2023-01-09T17:44:42.459Z,2.57
2023-01-09T17:47:16.349Z,3.53
2023-01-09T17:49:44.020Z,1.20
2023-01-09T17:52:11.569Z,4.00
2023-01-09T17:54:39.784Z,4.17
2023-01-09T17:57:10.407Z,4.97
2023-01-09T17:59:39.074Z,2.53
2023-01-09T18:02:19.073Z,1.27
2023-01-09T18:04:46.788Z,2.67
2023-01-09T18:07:18.153Z,2.97
2023-01-09T18:09:45.863Z,3.27
2023-01-09T18:12:13.679Z,2.33
2023-01-09T18:14:42.384Z,6.63
2023-01-09T18:17:13.131Z,2.70
2023-01-09T18:19:40.904Z,2.47
2023-01-09T18:22:08.485Z,2.07
2023-01-09T18:24:36.505Z,2.10
2023-01-09T18:27:04.164Z,4.03
2023-01-09T18:29:31.759Z,1.27
2023-01-09T18:31:59.494Z,2.13
2023-01-09T18:34:27.234Z,1.67
2023-01-09T18:36:55.065Z,3.43
2023-01-09T18:39:23.535Z,5.80
2023-01-09T18:41:51.455Z,4.50
2023-01-09T18:44:21.912Z,4.73
2023-01-09T18:46:49.686Z,2.70
2023-01-09T18:49:17.245Z,3.07
2023-01-09T18:51:44.887Z,3.60
2023-01-09T18:54:13.206Z,1.13
2023-01-09T18:56:40.842Z,1.30
2023-01-09T18:59:09.325Z,2.53
2023-01-09T19:01:37.262Z,3.13
2023-01-09T19:04:05.172Z,2.60
2023-01-09T19:06:32.895Z,2.50
2023-01-09T19:09:00.926Z,4.87
2023-01-09T19:11:28.751Z,4.17
2023-01-09T19:13:56.376Z,3.50
2023-01-09T19:16:24.231Z,3.73
2023-01-09T19:18:51.916Z,3.30
2023-01-09T19:21:22.657Z,5.10
2023-01-09T19:23:50.319Z,3.23
2023-01-09T19:26:24.551Z,1.73
2023-01-09T19:28:55.345Z,1.73
2023-01-09T19:31:25.796Z,4.90
2023-01-09T19:33:53.796Z,5.53
2023-01-09T19:36:22.270Z,2.43
2023-01-09T19:38:54.997Z,2.90
2023-01-09T19:41:22.606Z,3.43
2023-01-09T19:43:50.574Z,3.00
2023-01-09T19:46:24.338Z,2.77
2023-01-09T19:48:53.186Z,5.00
2023-01-09T19:51:22.025Z,2.93
2023-01-09T19:53:55.463Z,4.00
2023-01-09T19:56:25.520Z,2.00
2023-01-09T19:59:04.343Z,2.87
2023-01-09T20:01:36.094Z,3.90
2023-01-09T20:04:13.493Z,3.50
2023-01-09T20:06:48.274Z,4.17
2023-01-09T20:09:19.349Z,1.47
2023-01-09T20:11:46.993Z,4.03
2023-01-09T20:14:17.345Z,3.20
2023-01-09T20:16:48.385Z,5.13
2023-01-09T20:19:16.745Z,4.50
2023-01-09T20:21:44.315Z,3.93
2023-01-09T20:24:16.802Z,1.77
2023-01-09T20:26:46.253Z,1.63
2023-01-09T20:29:14.144Z,2.73
2023-01-09T20:31:41.783Z,2.70
2023-01-09T20:34:14.369Z,2.10
2023-01-09T20:36:42.422Z,3.07
2023-01-09T20:39:12.299Z,2.90
2023-01-09T20:41:40.326Z,2.13
2023-01-09T20:44:13.073Z,1.53
2023-01-09T20:46:43.575Z,4.60
2023-01-09T20:49:14.213Z,2.40
2023-01-09T20:51:46.582Z,6.07
2023-01-09T20:54:15.801Z,3.43
2023-01-09T20:56:43.473Z,2.23
2023-01-09T20:59:14.625Z,5.60
2023-01-09T21:01:42.593Z,4.40
2023-01-09T21:04:10.267Z,6.13
2023-01-09T21:06:38.343Z,2.00
2023-01-09T21:09:06.401Z,3.70
2023-01-09T21:11:34.373Z,1.93
2023-01-09T21:14:01.970Z,2.83
2023-01-09T21:16:29.735Z,4.20
2023-01-09T21:18:57.404Z,1.90
2023-01-09T21:21:27.490Z,2.17
2023-01-09T21:23:58.809Z,1.57
2023-01-09T21:26:30.249Z,4.60
2023-01-09T21:29:00.378Z,2.77
2023-01-09T21:31:34.494Z,4.87
2023-01-09T21:34:08.151Z,13.40
2023-01-09T21:36:36.471Z,2.40
2023-01-09T21:39:08.056Z,2.80
2023-01-09T21:41:54.763Z,2.83
2023-01-09T21:44:40.775Z,4.30
2023-01-09T21:47:09.373Z,1.83
2023-01-09T21:49:41.581Z,2.67
2023-01-09T21:52:14.995Z,3.10
2023-01-09T21:54:42.636Z,3.00
2023-01-09T21:57:10.853Z,2.03
2023-01-09T21:59:38.671Z,2.07
2023-01-09T22:02:06.696Z,4.07
2023-01-09T22:04:34.485Z,4.30
2023-01-09T22:07:02.188Z,2.17
2023-01-09T22:09:30.030Z,4.30
2023-01-09T22:11:57.747Z,2.80
2023-01-09T22:14:25.403Z,3.33
2023-01-09T22:16:52.959Z,2.70
2023-01-09T22:19:20.750Z,3.00
2023-01-09T22:21:48.926Z,4.00
2023-01-09T22:24:19.157Z,2.30
2023-01-09T22:26:46.884Z,2.83
2023-01-09T22:29:16.066Z,4.63
2023-01-09T22:31:43.943Z,2.27
2023-01-09T22:34:17.236Z,2.57
2023-01-09T22:36:46.401Z,3.03
2023-01-09T22:39:16.996Z,4.73
2023-01-09T22:41:45.442Z,3.57
2023-01-09T22:44:13.158Z,2.47
2023-01-09T22:46:40.937Z,3.87
2023-01-09T22:49:11.834Z,1.40
2023-01-09T22:51:39.771Z,2.40
2023-01-09T22:54:07.563Z,6.70
2023-01-09T22:56:35.153Z,3.87
2023-01-09T22:59:02.693Z,2.23
2023-01-09T23:01:30.364Z,1.87
2023-01-09T23:03:57.895Z,2.77
2023-01-09T23:06:25.797Z,3.93
2023-01-09T23:08:53.589Z,3.40
2023-01-09T23:11:46.068Z,3.70
2023-01-09T23:14:13.903Z,3.33
2023-01-09T23:16:41.826Z,3.13
2023-01-09T23:19:14.327Z,2.53
2023-01-09T23:21:44.125Z,1.80
2023-01-09T23:24:13.929Z,2.97
2023-01-09T23:26:43.556Z,3.83
2023-01-09T23:29:12.183Z,7.73
2023-01-09T23:31:40.042Z,3.70
2023-01-09T23:34:08.328Z,3.93
2023-01-09T23:36:36.220Z,6.03
2023-01-09T23:39:08.754Z,5.43
2023-01-09T23:41:59.327Z,6.80
2023-01-09T23:44:28.094Z,6.87
2023-01-09T23:46:56.136Z,4.80
2023-01-09T23:49:23.849Z,3.70
2023-01-09T23:51:51.552Z,4.80
2023-01-09T23:54:19.284Z,4.30
2023-01-09T23:56:46.955Z,3.63
2023-01-09T23:59:14.911Z,4.63
